Skip to main content

Ημερήσια Μετεωρολογικά Δεδομένα Σταθμού Ποταμιών

Ημερήσια Μετεωρολογικά Δεδομένα Σταθμού Ποταμιών.

Παρέχεται η δυνατότητα πρόσβασης σε resource δεδομένα μέσω του DKAN Datastore Web API με δυνατότητα επιστροφής των αποτελεσμάτων σε XML ή JSON.

Date Time M07 Temperature (AVG) M07 Relative Humidity (AVG) ΠΟΤΑΜΙΕΣ WIND DIRECTION (AVG) M07 Barometric Pressure (AVG) ΤΑΥΡΟΝΙΤΗΣ Duration (SUM) M07 Precipitation (SUM) M07 Pyranometer 0 - 2000 W/m² (AVG) M07 WIND SPEED (AVG) ΠΟΤΑΜΙΕΣ Daily ETo
07/05/2026 00:00:00 18.3 43.2 189.4 980.8 0.0 0.0 311.6 6.5 6.72
06/05/2026 00:00:00 14.9 59.7 213.4 981.1 0.0 0.0 287.0 9.5 5.05
05/05/2026 00:00:00 10.9 77.6 265.6 981.6 352.5 5.9 157.6 12.3 2.36
04/05/2026 00:00:00 10.2 75.9 270.8 977.6 323.1 9.4 120.6 14.9 2.21
03/05/2026 00:00:00 11.0 84.7 242.0 978.0 499.4 7.4 44.6 17.2 1.26
02/05/2026 00:00:00 15.1 73.6 80.3 978.2 88.1 1.0 86.1 2.5 1.81
01/05/2026 00:00:00 19.4 42.6 164.8 979.1 0.0 0.0 283.1 2.2 5.24
30/04/2026 00:00:00 16.9 53.0 197.9 980.3 0.0 0.0 314.3 9.2 5.76
29/04/2026 00:00:00 15.3 73.8 200.1 979.8 0.0 0.0 318.3 10.7 4.88
28/04/2026 00:00:00 17.6 61.5 151.0 980.2 0.0 0.0 306.1 3.6 4.92
27/04/2026 00:00:00 14.5 86.3 183.2 977.2 323.1 57.6 105.2 4.7 1.55
26/04/2026 00:00:00 11.0 98.1 251.0 974.0 734.4 22.5 44.1 8.5 0.43
25/04/2026 00:00:00 11.3 97.5 185.2 975.9 646.2 14.9 21.8 10.9 0.24
24/04/2026 00:00:00 14.6 82.3 142.7 975.5 29.4 0.2 95.8 7.6 1.75
23/04/2026 00:00:00 16.7 66.8 208.4 976.5 0.0 0.0 289.9 8.8 4.83
22/04/2026 00:00:00 16.2 60.0 195.8 977.8 0.0 0.0 299.8 7.9 5.51
21/04/2026 00:00:00 15.4 65.3 184.7 979.3 0.0 0.0 290.2 7.8 4.50
20/04/2026 00:00:00 13.7 76.4 162.6 978.2 0.0 0.0 236.5 9.0 3.17
19/04/2026 00:00:00 13.2 82.6 137.4 972.4 0.0 0.0 35.2 7.4 1.13
18/04/2026 00:00:00 14.4 93.5 84.9 969.7 440.6 5.1 28.8 7.3 0.50
17/04/2026 00:00:00 15.1 80.2 114.0 974.1 0.0 0.0 118.5 6.4 2.24
16/04/2026 00:00:00 15.6 73.3 157.5 979.2 0.0 0.0 188.2 11.0 3.33
15/04/2026 00:00:00 15.7 72.4 171.2 981.4 0.0 0.0 137.2 9.7 2.70
14/04/2026 00:00:00 15.1 74.7 168.5 981.8 0.0 0.0 269.3 6.8 3.96
13/04/2026 00:00:00 14.2 76.9 169.4 981.1 0.0 0.0 237.2 7.4 3.70
12/04/2026 00:00:00 14.4 64.5 211.6 980.4 0.0 0.0 271.5 7.7 4.77
11/04/2026 00:00:00 14.4 73.1 217.0 978.9 0.0 0.0 293.4 13.7 4.72
10/04/2026 00:00:00 14.6 76.2 193.6 977.3 0.0 0.0 272.8 5.4 4.18
09/04/2026 00:00:00 16.2 52.9 197.6 980.3 0.0 0.0 295.0 6.6 5.38
08/04/2026 00:00:00 14.7 60.8 224.2 983.8 0.0 0.0 294.6 10.1 4.94
07/04/2026 00:00:00 13.3 86.9 154.6 984.1 176.2 7.6 151.6 8.0 1.96
06/04/2026 00:00:00 12.5 87.3 156.2 981.1 88.1 5.7 118.1 6.1 1.63
05/04/2026 00:00:00 12.9 80.4 216.9 975.9 264.4 11.0 82.2 9.4 1.54
04/04/2026 00:00:00 13.2 69.2 198.9 971.3 528.8 12.7 206.4 9.8 3.58
03/04/2026 00:00:00 13.2 63.2 215.3 965.8 275.6 4.0 212.1 15.4 4.69
02/04/2026 00:00:00 14.5 78.8 167.5 963.6 387.5 12.4 119.2 6.6 2.15
01/04/2026 00:00:00 12.1 74.2 229.6 972.8 8.1 0.3 99.4 11.0 2.51
31/03/2026 00:00:00 12.2 73.2 219.0 974.3 0.0 0.0 204.3 9.3 3.40
30/03/2026 00:00:00 11.3 70.5 256.8 970.1 0.0 0.0 152.2 15.4 2.66
29/03/2026 00:00:00 11.9 80.2 244.5 967.7 381.9 6.5 133.2 14.5 2.01
28/03/2026 00:00:00 15.4 55.0 166.8 970.5 8.1 0.1 195.3 9.4 4.53
27/03/2026 00:00:00 13.1 69.9 230.1 970.5 0.0 0.0 243.2 13.5 3.90
26/03/2026 00:00:00 9.4 95.7 240.9 966.2 851.9 59.7 19.9 11.7 0.36
25/03/2026 00:00:00 9.7 91.4 246.1 972.3 381.9 26.4 81.0 17.3 0.98
24/03/2026 00:00:00 9.8 97.4 264.5 971.7 771.9 21.9 69.1 27.0 0.40
23/03/2026 00:00:00 9.1 97.4 289.6 967.3 985.6 22.8 31.6 20.8 0.28
22/03/2026 00:00:00 8.1 93.5 293.2 966.2 931.2 25.3 51.9 19.7 0.56
21/03/2026 00:00:00 8.1 97.4 242.9 966.4 1194.4 65.5 31.8 11.8 0.23
20/03/2026 00:00:00 10.5 95.5 184.4 969.7 524.4 12.9 12.4 10.2 0.28
19/03/2026 00:00:00 13.5 72.0 181.2 968.7 157.5 3.6 143.0 9.2 3.11

Additonal Information

Field Value
mimetype text/csv
filesize 225.7 KB
timestamp Fri, 05/08/2026 - 17:09